site sitenws-alerts: Checking more than four warning/county codes can delay the loading of your pages. You should use a cron job to get the data.

Nearby METAR Weather Reports

 

KDMA - Davis/Tucson, Arizona, USA
Distance from station: W 21mi, 34km
Updated: 11/15/2018 1:58am
Clear
Clear
 Wind from SE
Wind: SE 9 mph , 15 km/h
Temperature: 48°F , 9°C
Wind Chill: 44°F , 7°C
Dew Point: 16°F , -9°C
Humidity: 27%
Barometer: 30.16 inHg , 1021.3 hPa
Clouds: Clear
Visibility: 10 miles , 16 km
2018/11/15 08:58 KDMA 150858Z AUTO 13008KT 10SM CLR 09/M09 A3016 RMK AO2 SLP196 T00921088 57003 $
KTUS - Tucson, Arizona, USA
Distance from station: W 26mi, 42km
Updated: 11/15/2018 1:53am
Clear
Clear
 Wind from E
Wind: E 9 mph , 15 km/h
Temperature: 52°F , 11°C
Dew Point: 16°F , -9°C
Humidity: 24%
Barometer: 30.17 inHg , 1021.7 hPa
Clouds: Clear
Visibility: 10 miles , 16 km
2018/11/15 08:53 KTUS 150853Z 10008KT 10SM CLR 11/M09 A3017 RMK AO2 SLP197 T01061094 58004
 
KALK - Pioneer Airfield, Arizona, USA
Distance from station: S 37mi, 60km
Updated: 11/15/2018 1:56am
Clear
Clear
 Wind from ENE
Wind: ENE 10 mph , 17 km/h
Temperature: 34°F , 1°C
Wind Chill: 26°F , -3°C
Dew Point: 12°F , -11°C
Humidity: 41%
Barometer: 30.23 inHg , 1023.7 hPa
Clouds: Clear
Visibility: 10 miles , 16 km
2018/11/15 08:56 KALK 150856Z AUTO 07009KT 10SM CLR 01/M11 A3023 RMK AO2 SLP195 T00061106 58006
KRYN - Tucson/Ryan Fld, Arizona, USA
Distance from station: W 39mi, 62km
Updated: 11/14/2018 7:45pm
NOT Current
Clear
Clear
 Wind from ESE
Wind: ESE 15 mph , 24 km/h
Temperature: 57°F , 14°C
Dew Point: 18°F , -8°C
Humidity: 21%
Barometer: 30.18 inHg , 1022 hPa
Clouds: Clear
Visibility: 10 miles , 16 km
2018/11/15 02:45 KRYN 150245Z 11013KT 10SM CLR 14/M08 A3018 RMK LAST
 
KFHU - Fort Huachuca, Arizona, USA
Distance from station: SSE 39mi, 63km
Updated: 11/15/2018 1:58am
Clear
Clear
 Wind from ENE
Wind: ENE 6 mph , 9 km/h
Temperature: 37°F , 3°C
Wind Chill: 32°F , 0°C
Dew Point: 10°F , -12°C
Humidity: 33%
Barometer: 30.23 inHg , 1023.7 hPa
Clouds: Clear
Visibility: 10 miles , 16 km
2018/11/15 08:58 KFHU 150858Z AUTO 07005KT 10SM CLR 03/M12 A3023 RMK AO2 SLP216 T00331120 57005
KOLS - Nogales, Arizona, USA
Distance from station: SSW 54mi, 86km
Updated: 11/15/2018 1:54am
Clear
Clear
 Wind from ENE
Wind: ENE 3 mph , 6 km/h
Temperature: 37°F , 3°C
Dew Point: 10°F , -12°C
Humidity: 33%
Barometer: 30.18 inHg , 1022 hPa
Clouds: Clear
Visibility: 10 miles , 16 km
2018/11/15 08:54 KOLS 150854Z AUTO 06003KT 10SM CLR 03/M12 A3018 RMK AO2 SLP192 T00331122 58004
 
KDUG - Douglas Bisbee, Arizona, USA
Distance from station: SE 71mi, 114km
Updated: 11/15/2018 1:56am
Clear
Clear
 Wind from N
Wind: N 7 mph , 11 km/h
Temperature: 34°F , 1°C
Wind Chill: 28°F , -2°C
Dew Point: 14°F , -10°C
Humidity: 44%
Barometer: 30.23 inHg , 1023.7 hPa
Clouds: Clear
Visibility: 10 miles , 16 km
2018/11/15 08:56 KDUG 150856Z AUTO 36006KT 10SM CLR 01/M10 A3023 RMK AO2 SLP217 T00111100 58003
KSAD - Safford, Arizona, USA
Distance from station: NE 71mi, 114km
Updated: 11/15/2018 1:51am
Clear
Clear
 Wind from SE
Wind: SE 7 mph , 11 km/h
Temperature: 43°F , 6°C
Wind Chill: 39°F , 4°C
Dew Point: 18°F , -8°C
Humidity: 36%
Barometer: 30.26 inHg , 1024.7 hPa
Clouds: Clear
Visibility: 10 miles , 16 km
2018/11/15 08:51 KSAD 150851Z AUTO 14006KT 10SM CLR 06/M08 A3026 RMK AO2 SLP235 T00561083 56002
 
KCGZ - Casa Granda, Arizona, USA
Distance from station: NW 93mi, 149km
Updated: 11/15/2018 1:56am
Clear
Clear
 Wind from E
Wind: E 10 mph , 17 km/h
Temperature: 55°F , 13°C
Dew Point: 18°F , -8°C
Humidity: 23%
Barometer: 30.15 inHg , 1021 hPa
Clouds: Clear
Visibility: 10 miles , 16 km
2018/11/15 08:56 KCGZ 150856Z AUTO 08009KT 10SM CLR 13/M08 A3015 RMK AO2 SLP207 6//// T01281078 $
KLSB - Lordsburg, New Mexico, USA
Distance from station: E 106mi, 171km
Updated: 02/26/2018 1:22pm
NOT Current
Clear
Clear
 Wind from ESE
Wind: ESE 13 mph , 20 km/h, Gust: 18 mph , 30 km/h
Temperature: 63°F , 17°C
Dew Point: 10°F , -12°C
Humidity: 13%
Barometer: 30.04 inHg , 1017.3 hPa
Clouds: Clear
Visibility: 10 miles , 16 km
2018/02/26 20:22 KLSB 262022Z AUTO 11011G16KT 090V150 10SM CLR 17/M12 A3004
 
KPHX - Phoenix/Sky Hrbr, Arizona, USA
Distance from station: NW 126mi, 202km
Updated: 11/15/2018 1:51am
Partly cloudy
Partly cloudy
 Wind from calm
Wind: Calm
Temperature: 52°F , 11°C
Dew Point: 27°F , -3°C
Humidity: 38%
Barometer: 30.14 inHg , 1020.7 hPa
Clouds: Partly cloudy
Visibility: 10 miles , 16 km
Cloud details: Partly cloudy 25000 ft
2018/11/15 08:51 KPHX 150851Z 00000KT 10SM SCT250 11/M03 A3014 RMK AO2 SLP198 T01061033 58003
KGXF - Gila Bend (aaf), Arizona, USA
Distance from station: WNW 139mi, 223km
Updated: 11/15/2018 1:58am
Clear
Clear
 Wind from NE
Wind: NE 6 mph , 9 km/h
Temperature: 45°F , 7°C
Wind Chill: 42°F , 6°C
Dew Point: 21°F , -6°C
Humidity: 39%
Barometer: 30.13 inHg , 1020.3 hPa
Clouds: Clear
Visibility: 9 miles , 14 km
2018/11/15 08:58 KGXF 150858Z AUTO 05005KT 9SM CLR 07/M06 A3013 RMK AO2 SLP199 T00731065 55006
 
KSVC - Silver City, New Mexico, USA
Distance from station: ENE 142mi, 228km
Updated: 11/15/2018 1:55am
Clear
Clear
 Wind from N
Wind: N 7 mph , 11 km/h
Temperature: 28°F , -2°C
Wind Chill: 21°F , -6°C
Dew Point: 16°F , -9°C
Humidity: 59%
Barometer: 30.31 inHg , 1026.4 hPa
Clouds: Clear
Visibility: 10 miles , 16 km
2018/11/15 08:55 KSVC 150855Z AUTO 01006KT 10SM CLR M02/M09 A3031 RMK AO2 T10251090
KLUF - Luke Afb/Glendal, Arizona, USA
Distance from station: NW 144mi, 232km
Updated: 11/15/2018 1:58am
Clear
Clear
 Wind from N
Wind: N 6 mph , 9 km/h
Temperature: 43°F , 6°C
Wind Chill: 39°F , 4°C
Dew Point: 27°F , -3°C
Humidity: 53%
Barometer: 30.15 inHg , 1021 hPa
Clouds: Clear
Visibility: 10 miles , 16 km
2018/11/15 08:58 KLUF 150858Z AUTO 36005KT 10SM CLR 06/M03 A3015 RMK AO2 DZB0758 SLP208 P0000 60000 T00641035 55002 $